Time,TemperatureF,DewpointF,PressureIn,WindDirection,WindDirectionDegrees,WindSpeedMPH,WindSpeedGustMPH,Humidity,HourlyPrecipIn,Conditions,Clouds,dailyrainin,SoftwareType,DateUTC
2013-01-17 00:05:00,52.1,29.7,30.20,ENE,61,1.0,1.0,42,0.00,,,0.00,Wunderground v.1.15,2013-01-17 08:05:00,
2013-01-17 00:10:00,52.3,29.9,30.20,NE,44,1.0,1.0,42,0.00,,,0.00,Wunderground v.1.15,2013-01-17 08:10:00,
2013-01-17 00:15:00,52.4,29.4,30.20,NNE,23,0.0,1.0,41,0.00,,,0.00,Wunderground v.1.15,2013-01-17 08:15:00,
2013-01-17 00:20:00,52.2,29.8,30.20,NNE,25,0.0,0.0,42,0.00,,,0.00,Wunderground v.1.15,2013-01-17 08:20:00,
2013-01-17 00:30:00,51.6,29.8,30.20,NNW,345,0.0,0.0,43,0.00,,,0.00,Wunderground v.1.15,2013-01-17 08:30:00,
2013-01-17 00:35:00,51.1,29.9,30.20,NNE,23,0.0,0.0,44,0.00,,,0.00,Wunderground v.1.15,2013-01-17 08:35:00,
2013-01-17 00:45:00,50.2,30.2,30.20,NNE,15,0.0,0.0,46,0.00,,,0.00,Wunderground v.1.15,2013-01-17 08:45:00,
2013-01-17 00:50:00,50.2,29.7,30.20,NE,38,0.0,1.0,45,0.00,,,0.00,Wunderground v.1.15,2013-01-17 08:50:00,
2013-01-17 01:00:00,51.0,29.3,30.20,NE,46,0.0,0.0,43,0.00,,,0.00,Wunderground v.1.15,2013-01-17 09:00:00,
2013-01-17 01:10:00,51.2,30.0,30.19,North,360,0.0,0.0,44,0.00,,,0.00,Wunderground v.1.15,2013-01-17 09:10:00,
2013-01-17 01:15:00,50.9,30.3,30.20,NNW,344,0.0,0.0,45,0.00,,,0.00,Wunderground v.1.15,2013-01-17 09:15:00,
2013-01-17 01:20:00,51.3,29.5,30.20,North,5,0.0,0.0,43,0.00,,,0.00,Wunderground v.1.15,2013-01-17 09:20:00,
2013-01-17 01:25:00,51.4,29.6,30.19,North,349,0.0,1.0,43,0.00,,,0.00,Wunderground v.1.15,2013-01-17 09:25:00,
2013-01-17 01:30:00,51.4,29.6,30.19,NNE,15,0.0,0.0,43,0.00,,,0.00,Wunderground v.1.15,2013-01-17 09:30:00,
2013-01-17 01:35:00,51.8,28.8,30.19,NNE,12,0.0,0.0,41,0.00,,,0.00,Wunderground v.1.15,2013-01-17 09:35:00,
2013-01-17 01:40:00,52.1,29.7,30.19,NNW,343,0.0,0.0,42,0.00,,,0.00,Wunderground v.1.15,2013-01-17 09:40:00,
2013-01-17 01:45:00,52.2,28.6,30.19,North,4,0.0,0.0,40,0.00,,,0.00,Wunderground v.1.15,2013-01-17 09:45:00,
2013-01-17 01:50:00,52.6,28.9,30.19,NE,47,0.0,0.0,40,0.00,,,0.00,Wunderground v.1.15,2013-01-17 09:50:00,
2013-01-17 02:00:00,52.1,29.7,30.19,NNE,19,0.0,0.0,42,0.00,,,0.00,Wunderground v.1.15,2013-01-17 10:00:00,
2013-01-17 02:10:00,51.8,29.4,30.19,NNW,342,0.0,0.0,42,0.00,,,0.00,Wunderground v.1.15,2013-01-17 10:10:00,
2013-01-17 02:15:00,51.8,29.4,30.18,NW,305,0.0,2.0,42,0.00,,,0.00,Wunderground v.1.15,2013-01-17 10:15:00,
2013-01-17 02:20:00,52.1,29.7,30.18,NNW,330,1.0,1.0,42,0.00,,,0.00,Wunderground v.1.15,2013-01-17 10:20:00,
2013-01-17 02:30:00,51.8,29.4,30.18,NW,319,0.0,1.0,42,0.00,,,0.00,Wunderground v.1.15,2013-01-17 10:30:00,
2013-01-17 02:35:00,51.8,29.4,30.18,NE,38,0.0,1.0,42,0.00,,,0.00,Wunderground v.1.15,2013-01-17 10:35:00,
2013-01-17 02:40:00,52.3,29.3,30.18,NNE,19,0.0,0.0,41,0.00,,,0.00,Wunderground v.1.15,2013-01-17 10:40:00,
2013-01-17 02:45:00,52.5,29.5,30.18,North,1,0.0,0.0,41,0.00,,,0.00,Wunderground v.1.15,2013-01-17 10:45:00,
2013-01-17 02:50:00,52.6,29.5,30.18,North,356,0.0,0.0,41,0.00,,,0.00,Wunderground v.1.15,2013-01-17 10:50:00,
2013-01-17 02:55:00,52.6,29.5,30.17,NW,315,0.0,1.0,41,0.00,,,0.00,Wunderground v.1.15,2013-01-17 10:55:00,
2013-01-17 03:05:00,52.9,29.2,30.17,NNE,26,0.0,0.0,40,0.00,,,0.00,Wunderground v.1.15,2013-01-17 11:05:00,
2013-01-17 03:10:00,53.0,29.3,30.17,NNE,32,0.0,0.0,40,0.00,,,0.00,Wunderground v.1.15,2013-01-17 11:10:00,
2013-01-17 03:15:00,53.2,29.5,30.17,NW,319,1.0,1.0,40,0.00,,,0.00,Wunderground v.1.15,2013-01-17 11:15:00,
2013-01-17 03:25:00,53.3,28.9,30.17,NNE,19,0.0,0.0,39,0.00,,,0.00,Wunderground v.1.15,2013-01-17 11:25:00,
2013-01-17 03:30:00,53.8,28.8,30.16,NNW,335,1.0,1.0,38,0.00,,,0.00,Wunderground v.1.15,2013-01-17 11:30:00,
2013-01-17 03:35:00,54.1,29.0,30.16,NNW,344,1.0,1.0,38,0.00,,,0.00,Wunderground v.1.15,2013-01-17 11:35:00,
2013-01-17 03:40:00,54.3,29.2,30.16,North,10,1.0,1.0,38,0.00,,,0.00,Wunderground v.1.15,2013-01-17 11:40:00,
2013-01-17 03:45:00,54.7,28.9,30.16,NNE,19,1.0,1.0,37,0.00,,,0.00,Wunderground v.1.15,2013-01-17 11:45:00,
2013-01-17 03:50:00,54.7,28.2,30.16,North,1,0.0,0.0,36,0.00,,,0.00,Wunderground v.1.15,2013-01-17 11:50:00,
2013-01-17 04:00:00,54.5,28.7,30.16,NNW,335,1.0,1.0,37,0.00,,,0.00,Wunderground v.1.15,2013-01-17 12:00:00,
2013-01-17 04:10:00,53.7,29.9,30.15,NNW,337,0.0,0.0,40,0.00,,,0.00,Wunderground v.1.15,2013-01-17 12:10:00,
2013-01-17 04:15:00,53.8,29.4,30.15,NNE,26,0.0,0.0,39,0.00,,,0.00,Wunderground v.1.15,2013-01-17 12:15:00,
2013-01-17 04:25:00,54.1,29.0,30.15,NE,48,0.0,0.0,38,0.00,,,0.00,Wunderground v.1.15,2013-01-17 12:25:00,
2013-01-17 04:30:00,54.3,29.2,30.15,NNE,20,0.0,0.0,38,0.00,,,0.00,Wunderground v.1.15,2013-01-17 12:30:00,
2013-01-17 04:35:00,54.2,29.1,30.15,North,9,0.0,0.0,38,0.00,,,0.00,Wunderground v.1.15,2013-01-17 12:35:00,
2013-01-17 04:40:00,53.9,29.5,30.14,North,351,0.0,0.0,39,0.00,,,0.00,Wunderground v.1.15,2013-01-17 12:40:00,
2013-01-17 04:45:00,53.8,29.4,30.14,NNW,338,0.0,1.0,39,0.00,,,0.00,Wunderground v.1.15,2013-01-17 12:45:00,
2013-01-17 04:50:00,53.8,28.8,30.14,NNE,28,0.0,0.0,38,0.00,,,0.00,Wunderground v.1.15,2013-01-17 12:50:00,
2013-01-17 04:55:00,54.1,29.7,30.14,NW,324,0.0,0.0,39,0.00,,,0.00,Wunderground v.1.15,2013-01-17 12:55:00,
2013-01-17 05:05:00,54.7,28.2,30.13,NW,312,0.0,1.0,36,0.00,,,0.00,Wunderground v.1.15,2013-01-17 13:05:00,
2013-01-17 05:10:00,54.8,29.7,30.13,NNE,21,0.0,0.0,38,0.00,,,0.00,Wunderground v.1.15,2013-01-17 13:10:00,
2013-01-17 05:20:00,54.9,28.4,30.13,WNW,296,0.0,0.0,36,0.00,,,0.00,Wunderground v.1.15,2013-01-17 13:20:00,
2013-01-17 05:25:00,54.6,29.5,30.13,NNW,328,0.0,0.0,38,0.00,,,0.00,Wunderground v.1.15,2013-01-17 13:25:00,
2013-01-17 05:30:00,54.3,29.8,30.13,NNW,335,0.0,0.0,39,0.00,,,0.00,Wunderground v.1.15,2013-01-17 13:30:00,
2013-01-17 05:35:00,54.0,30.2,30.14,NNW,341,1.0,1.0,40,0.00,,,0.00,Wunderground v.1.15,2013-01-17 13:35:00,
2013-01-17 05:40:00,53.6,30.4,30.14,NNE,19,0.0,0.0,41,0.00,,,0.00,Wunderground v.1.15,2013-01-17 13:40:00,
2013-01-17 05:45:00,53.3,29.6,30.13,NNE,25,0.0,0.0,40,0.00,,,0.00,Wunderground v.1.15,2013-01-17 13:45:00,
2013-01-17 05:50:00,53.8,29.4,30.13,NNW,328,0.0,0.0,39,0.00,,,0.00,Wunderground v.1.15,2013-01-17 13:50:00,
2013-01-17 06:00:00,53.9,29.5,30.14,NW,322,0.0,1.0,39,0.00,,,0.00,Wunderground v.1.15,2013-01-17 14:00:00,
2013-01-17 06:10:00,54.9,29.1,30.14,NNE,14,0.0,0.0,37,0.00,,,0.00,Wunderground v.1.15,2013-01-17 14:10:00,
2013-01-17 06:15:00,54.8,29.0,30.14,SE,131,0.0,0.0,37,0.00,,,0.00,Wunderground v.1.15,2013-01-17 14:15:00,
2013-01-17 06:20:00,54.4,29.9,30.14,SE,124,0.0,0.0,39,0.00,,,0.00,Wunderground v.1.15,2013-01-17 14:20:00,
2013-01-17 06:25:00,54.1,29.7,30.14,West,263,0.0,1.0,39,0.00,,,0.00,Wunderground v.1.15,2013-01-17 14:25:00,
2013-01-17 06:30:00,54.7,28.9,30.14,North,352,1.0,1.0,37,0.00,,,0.00,Wunderground v.1.15,2013-01-17 14:30:00,
2013-01-17 06:40:00,54.6,28.8,30.14,NNW,334,0.0,1.0,37,0.00,,,0.00,Wunderground v.1.15,2013-01-17 14:40:00,
2013-01-17 06:45:00,54.8,29.7,30.15,NNE,22,1.0,1.0,38,0.00,,,0.00,Wunderground v.1.15,2013-01-17 14:45:00,
2013-01-17 06:50:00,54.9,29.7,30.15,NE,36,1.0,3.0,38,0.00,,,0.00,Wunderground v.1.15,2013-01-17 14:50:00,
2013-01-17 06:55:00,54.7,29.6,30.15,NW,321,0.0,3.0,38,0.00,,,0.00,Wunderground v.1.15,2013-01-17 14:55:00,
2013-01-17 07:00:00,54.9,28.4,30.15,NW,318,0.0,0.0,36,0.00,,,0.00,Wunderground v.1.15,2013-01-17 15:00:00,
2013-01-17 07:10:00,55.1,29.3,30.15,NNE,13,0.0,1.0,37,0.00,,,0.00,Wunderground v.1.15,2013-01-17 15:10:00,
2013-01-17 07:15:00,55.1,29.3,30.15,North,9,0.0,1.0,37,0.00,,,0.00,Wunderground v.1.15,2013-01-17 15:15:00,
2013-01-17 07:20:00,55.0,29.2,30.15,North,1,0.0,0.0,37,0.00,,,0.00,Wunderground v.1.15,2013-01-17 15:20:00,
2013-01-17 07:25:00,55.0,28.5,30.15,North,4,0.0,0.0,36,0.00,,,0.00,Wunderground v.1.15,2013-01-17 15:25:00,
2013-01-17 07:30:00,55.0,28.5,30.15,North,359,0.0,0.0,36,0.00,,,0.00,Wunderground v.1.15,2013-01-17 15:30:00,
2013-01-17 07:35:00,55.2,29.4,30.16,North,5,0.0,1.0,37,0.00,,,0.00,Wunderground v.1.15,2013-01-17 15:35:00,
2013-01-17 07:40:00,55.0,29.8,30.16,North,351,0.0,0.0,38,0.00,,,0.00,Wunderground v.1.15,2013-01-17 15:40:00,
2013-01-17 07:50:00,55.2,28.7,30.16,NE,36,0.0,0.0,36,0.00,,,0.00,Wunderground v.1.15,2013-01-17 15:50:00,
2013-01-17 07:55:00,55.8,29.2,30.16,NNE,29,0.0,0.0,36,0.00,,,0.00,Wunderground v.1.15,2013-01-17 15:55:00,
2013-01-17 08:00:00,55.9,29.3,30.16,NNW,333,0.0,0.0,36,0.00,,,0.00,Wunderground v.1.15,2013-01-17 16:00:00,
2013-01-17 08:10:00,57.0,29.6,30.16,North,1,0.0,0.0,35,0.00,,,0.00,Wunderground v.1.15,2013-01-17 16:10:00,
2013-01-17 08:15:00,57.9,30.4,30.16,NNW,342,0.0,1.0,35,0.00,,,0.00,Wunderground v.1.15,2013-01-17 16:15:00,
2013-01-17 08:25:00,61.2,33.3,30.17,ESE,117,0.0,1.0,35,0.00,,,0.00,Wunderground v.1.15,2013-01-17 16:25:00,
2013-01-17 08:30:00,62.5,33.0,30.17,NNE,26,0.0,0.0,33,0.00,,,0.00,Wunderground v.1.15,2013-01-17 16:30:00,
2013-01-17 08:35:00,63.3,33.7,30.17,East,79,0.0,0.0,33,0.00,,,0.00,Wunderground v.1.15,2013-01-17 16:35:00,
2013-01-17 08:40:00,63.6,35.4,30.17,East,79,0.0,0.0,35,0.00,,,0.00,Wunderground v.1.15,2013-01-17 16:40:00,
2013-01-17 08:45:00,63.1,35.0,30.17,East,82,1.0,1.0,35,0.00,,,0.00,Wunderground v.1.15,2013-01-17 16:45:00,
2013-01-17 08:50:00,62.9,35.5,30.17,ENE,74,1.0,1.0,36,0.00,,,0.00,Wunderground v.1.15,2013-01-17 16:50:00,
2013-01-17 08:55:00,63.1,35.0,30.17,East,80,1.0,1.0,35,0.00,,,0.00,Wunderground v.1.15,2013-01-17 16:55:00,
2013-01-17 09:05:00,62.8,36.8,30.18,East,101,1.0,2.0,38,0.00,,,0.00,Wunderground v.1.15,2013-01-17 17:05:00,
2013-01-17 09:10:00,62.4,36.4,30.18,ENE,78,2.0,3.0,38,0.00,,,0.00,Wunderground v.1.15,2013-01-17 17:10:00,
2013-01-17 09:15:00,62.1,37.5,30.18,East,89,2.0,3.0,40,0.00,,,0.00,Wunderground v.1.15,2013-01-17 17:15:00,
2013-01-17 09:20:00,62.8,38.1,30.18,East,87,2.0,2.0,40,0.00,,,0.00,Wunderground v.1.15,2013-01-17 17:20:00,
2013-01-17 09:25:00,63.4,40.5,30.18,East,82,2.0,2.0,43,0.00,,,0.00,Wunderground v.1.15,2013-01-17 17:25:00,
2013-01-17 09:30:00,63.4,38.0,30.18,ESE,110,2.0,3.0,39,0.00,,,0.00,Wunderground v.1.15,2013-01-17 17:30:00,
2013-01-17 09:40:00,63.0,38.9,30.18,East,87,3.0,3.0,41,0.00,,,0.00,Wunderground v.1.15,2013-01-17 17:40:00,
2013-01-17 09:45:00,63.7,40.2,30.17,ESE,115,2.0,3.0,42,0.00,,,0.00,Wunderground v.1.15,2013-01-17 17:45:00,
2013-01-17 09:50:00,64.1,41.1,30.17,ESE,117,2.0,2.0,43,0.00,,,0.00,Wunderground v.1.15,2013-01-17 17:50:00,
2013-01-17 09:55:00,64.9,40.0,30.17,ESE,116,1.0,2.0,40,0.00,,,0.00,Wunderground v.1.15,2013-01-17 17:55:00,
2013-01-17 10:00:00,65.9,41.5,30.17,SE,129,1.0,1.0,41,0.00,,,0.00,Wunderground v.1.15,2013-01-17 18:00:00,
2013-01-17 10:10:00,67.2,35.5,30.17,SW,227,0.0,0.0,31,0.00,,,0.00,Wunderground v.1.15,2013-01-17 18:10:00,
2013-01-17 10:15:00,68.1,37.9,30.17,SE,134,0.0,1.0,33,0.00,,,0.00,Wunderground v.1.15,2013-01-17 18:15:00,
2013-01-17 10:25:00,69.4,41.3,30.17,ESE,105,0.0,1.0,36,0.00,,,0.00,Wunderground v.1.15,2013-01-17 18:25:00,
2013-01-17 10:30:00,68.3,38.8,30.17,ESE,114,1.0,1.0,34,0.00,,,0.00,Wunderground v.1.15,2013-01-17 18:30:00,
2013-01-17 10:35:00,68.5,39.0,30.17,SE,142,1.0,1.0,34,0.00,,,0.00,Wunderground v.1.15,2013-01-17 18:35:00,
2013-01-17 10:40:00,69.0,40.2,30.17,ESE,120,1.0,1.0,35,0.00,,,0.00,Wunderground v.1.15,2013-01-17 18:40:00,
2013-01-17 10:45:00,68.9,39.4,30.16,SE,138,1.0,1.0,34,0.00,,,0.00,Wunderground v.1.15,2013-01-17 18:45:00,
2013-01-17 10:50:00,69.4,37.4,30.16,SW,227,0.0,0.0,31,0.00,,,0.00,Wunderground v.1.15,2013-01-17 18:50:00,
2013-01-17 10:55:00,69.6,36.8,30.16,SSW,209,0.0,0.0,30,0.00,,,0.00,Wunderground v.1.15,2013-01-17 18:55:00,
2013-01-17 11:00:00,69.8,34.3,30.15,WSW,237,0.0,0.0,27,0.00,,,0.00,Wunderground v.1.15,2013-01-17 19:00:00,
2013-01-17 11:10:00,70.4,37.5,30.15,SE,142,0.0,0.0,30,0.00,,,0.00,Wunderground v.1.15,2013-01-17 19:10:00,
2013-01-17 11:15:00,70.9,35.2,30.15,SSE,148,0.0,0.0,27,0.00,,,0.00,Wunderground v.1.15,2013-01-17 19:15:00,
2013-01-17 11:20:00,71.3,37.4,30.14,SE,131,0.0,1.0,29,0.00,,,0.00,Wunderground v.1.15,2013-01-17 19:20:00,
2013-01-17 11:25:00,71.2,38.2,30.14,ESE,111,0.0,2.0,30,0.00,,,0.00,Wunderground v.1.15,2013-01-17 19:25:00,
2013-01-17 11:30:00,71.5,37.6,30.14,East,101,1.0,2.0,29,0.00,,,0.00,Wunderground v.1.15,2013-01-17 19:30:00,
2013-01-17 11:35:00,71.5,36.7,30.13,SSE,148,1.0,2.0,28,0.00,,,0.00,Wunderground v.1.15,2013-01-17 19:35:00,
2013-01-17 11:40:00,71.0,34.4,30.13,SW,230,0.0,0.0,26,0.00,,,0.00,Wunderground v.1.15,2013-01-17 19:40:00,
2013-01-17 11:50:00,70.5,34.9,30.13,SW,229,0.0,0.0,27,0.00,,,0.00,Wunderground v.1.15,2013-01-17 19:50:00,
2013-01-17 11:55:00,70.3,33.8,30.13,SW,236,0.0,0.0,26,0.00,,,0.00,Wunderground v.1.15,2013-01-17 19:55:00,
2013-01-17 12:00:00,70.5,34.9,30.12,WNW,290,0.0,0.0,27,0.00,,,0.00,Wunderground v.1.15,2013-01-17 20:00:00,
2013-01-17 12:10:00,70.6,33.0,30.12,WSW,250,0.0,0.0,25,0.00,,,0.00,Wunderground v.1.15,2013-01-17 20:10:00,
2013-01-17 12:15:00,70.3,34.7,30.12,West,266,0.0,0.0,27,0.00,,,0.00,Wunderground v.1.15,2013-01-17 20:15:00,
2013-01-17 12:25:00,71.6,34.9,30.12,WNW,290,0.0,1.0,26,0.00,,,0.00,Wunderground v.1.15,2013-01-17 20:25:00,
2013-01-17 12:30:00,71.3,34.6,30.12,WSW,252,0.0,0.0,26,0.00,,,0.00,Wunderground v.1.15,2013-01-17 20:30:00,
2013-01-17 12:35:00,71.0,35.3,30.11,West,259,0.0,0.0,27,0.00,,,0.00,Wunderground v.1.15,2013-01-17 20:35:00,
2013-01-17 12:40:00,71.0,34.4,30.12,WSW,239,0.0,0.0,26,0.00,,,0.00,Wunderground v.1.15,2013-01-17 20:40:00,
2013-01-17 12:45:00,70.9,36.1,30.11,WSW,257,0.0,0.0,28,0.00,,,0.00,Wunderground v.1.15,2013-01-17 20:45:00,
2013-01-17 12:50:00,71.1,35.4,30.11,WSW,238,0.0,0.0,27,0.00,,,0.00,Wunderground v.1.15,2013-01-17 20:50:00,
2013-01-17 12:55:00,71.3,33.6,30.11,North,349,0.0,1.0,25,0.00,,,0.00,Wunderground v.1.15,2013-01-17 20:55:00,
2013-01-17 13:05:00,71.4,31.6,30.11,WNW,291,0.0,1.0,23,0.00,,,0.00,Wunderground v.1.15,2013-01-17 21:05:00,
2013-01-17 13:10:00,71.0,32.4,30.10,WNW,289,0.0,1.0,24,0.00,,,0.00,Wunderground v.1.15,2013-01-17 21:10:00,
2013-01-17 13:15:00,70.4,31.9,30.10,West,274,0.0,1.0,24,0.00,,,0.00,Wunderground v.1.15,2013-01-17 21:15:00,
2013-01-17 13:20:00,70.6,33.0,30.10,West,274,0.0,0.0,25,0.00,,,0.00,Wunderground v.1.15,2013-01-17 21:20:00,
2013-01-17 13:25:00,71.0,33.4,30.10,West,274,0.0,0.0,25,0.00,,,0.00,Wunderground v.1.15,2013-01-17 21:25:00,
2013-01-17 13:30:00,71.1,33.5,30.10,West,271,0.0,0.0,25,0.00,,,0.00,Wunderground v.1.15,2013-01-17 21:30:00,
2013-01-17 13:40:00,70.5,33.0,30.10,WNW,291,0.0,0.0,25,0.00,,,0.00,Wunderground v.1.15,2013-01-17 21:40:00,
2013-01-17 13:45:00,69.9,33.4,30.10,WNW,288,1.0,1.0,26,0.00,,,0.00,Wunderground v.1.15,2013-01-17 21:45:00,
2013-01-17 13:50:00,70.2,31.7,30.09,WNW,299,1.0,1.0,24,0.00,,,0.00,Wunderground v.1.15,2013-01-17 21:50:00,
2013-01-17 13:55:00,69.9,32.5,30.09,WNW,289,1.0,1.0,25,0.00,,,0.00,Wunderground v.1.15,2013-01-17 21:55:00,
2013-01-17 14:00:00,69.9,32.5,30.09,WNW,287,1.0,1.0,25,0.00,,,0.00,Wunderground v.1.15,2013-01-17 22:00:00,
2013-01-17 14:10:00,70.2,33.7,30.09,West,278,0.0,0.0,26,0.00,,,0.00,Wunderground v.1.15,2013-01-17 22:10:00,
2013-01-17 14:20:00,71.1,34.5,30.09,West,277,0.0,0.0,26,0.00,,,0.00,Wunderground v.1.15,2013-01-17 22:20:00,
2013-01-17 14:25:00,70.2,32.7,30.09,West,262,0.0,0.0,25,0.00,,,0.00,Wunderground v.1.15,2013-01-17 22:25:00,
2013-01-17 14:30:00,70.0,33.5,30.08,West,277,1.0,1.0,26,0.00,,,0.00,Wunderground v.1.15,2013-01-17 22:30:00,
2013-01-17 14:35:00,70.1,33.6,30.08,West,276,0.0,1.0,26,0.00,,,0.00,Wunderground v.1.15,2013-01-17 22:35:00,
2013-01-17 14:40:00,70.3,33.8,30.09,West,269,0.0,1.0,26,0.00,,,0.00,Wunderground v.1.15,2013-01-17 22:40:00,
2013-01-17 14:45:00,70.3,32.8,30.09,West,271,1.0,1.0,25,0.00,,,0.00,Wunderground v.1.15,2013-01-17 22:45:00,
2013-01-17 14:55:00,69.5,34.0,30.09,West,276,0.0,0.0,27,0.00,,,0.00,Wunderground v.1.15,2013-01-17 22:55:00,
2013-01-17 15:00:00,68.7,33.3,30.09,WNW,282,1.0,1.0,27,0.00,,,0.00,Wunderground v.1.15,2013-01-17 23:00:00,
2013-01-17 15:10:00,68.0,32.7,30.09,WNW,293,1.0,1.0,27,0.00,,,0.00,Wunderground v.1.15,2013-01-17 23:10:00,
2013-01-17 15:15:00,67.6,33.3,30.08,WNW,293,1.0,1.0,28,0.00,,,0.00,Wunderground v.1.15,2013-01-17 23:15:00,
2013-01-17 15:20:00,67.7,33.4,30.08,WNW,293,1.0,1.0,28,0.00,,,0.00,Wunderground v.1.15,2013-01-17 23:20:00,
2013-01-17 15:25:00,67.6,32.4,30.08,WNW,294,1.0,1.0,27,0.00,,,0.00,Wunderground v.1.15,2013-01-17 23:25:00,
2013-01-17 15:30:00,67.7,34.3,30.08,NNE,33,1.0,1.0,29,0.00,,,0.00,Wunderground v.1.15,2013-01-17 23:30:00,
2013-01-17 15:35:00,68.4,34.0,30.08,NE,53,0.0,1.0,28,0.00,,,0.00,Wunderground v.1.15,2013-01-17 23:35:00,
2013-01-17 15:40:00,68.3,37.3,30.08,East,96,0.0,0.0,32,0.00,,,0.00,Wunderground v.1.15,2013-01-17 23:40:00,
2013-01-17 15:50:00,66.4,35.6,30.08,ESE,113,1.0,2.0,32,0.00,,,0.00,Wunderground v.1.15,2013-01-17 23:50:00,
2013-01-17 15:55:00,66.1,36.9,30.08,ESE,109,2.0,2.0,34,0.00,,,0.00,Wunderground v.1.15,2013-01-17 23:55:00,
2013-01-17 16:00:00,65.4,39.1,30.08,East,91,2.0,2.0,38,0.00,,,0.00,Wunderground v.1.15,2013-01-18 00:00:00,
2013-01-17 16:10:00,63.9,39.7,30.08,ESE,108,2.0,2.0,41,0.00,,,0.00,Wunderground v.1.15,2013-01-18 00:10:00,
2013-01-17 16:15:00,63.3,38.6,30.08,East,94,2.0,3.0,40,0.00,,,0.00,Wunderground v.1.15,2013-01-18 00:15:00,
2013-01-17 16:20:00,63.2,37.8,30.08,East,89,3.0,3.0,39,0.00,,,0.00,Wunderground v.1.15,2013-01-18 00:20:00,
2013-01-17 16:30:00,63.4,39.3,30.08,East,89,2.0,2.0,41,0.00,,,0.00,Wunderground v.1.15,2013-01-18 00:30:00,
2013-01-17 16:35:00,63.4,39.9,30.08,East,86,2.0,2.0,42,0.00,,,0.00,Wunderground v.1.15,2013-01-18 00:35:00,
2013-01-17 16:40:00,63.6,38.8,30.08,East,82,1.0,1.0,40,0.00,,,0.00,Wunderground v.1.15,2013-01-18 00:40:00,
2013-01-17 16:45:00,63.5,39.4,30.08,ENE,76,1.0,1.0,41,0.00,,,0.00,Wunderground v.1.15,2013-01-18 00:45:00,
2013-01-17 16:50:00,62.8,39.4,30.09,East,92,1.0,1.0,42,0.00,,,0.00,Wunderground v.1.15,2013-01-18 00:50:00,
2013-01-17 16:55:00,62.0,38.6,30.09,East,82,1.0,1.0,42,0.00,,,0.00,Wunderground v.1.15,2013-01-18 00:55:00,
2013-01-17 17:00:00,61.6,38.9,30.09,ENE,76,1.0,1.0,43,0.00,,,0.00,Wunderground v.1.15,2013-01-18 01:00:00,
2013-01-17 17:10:00,61.1,37.2,30.09,ENE,76,0.0,1.0,41,0.00,,,0.00,Wunderground v.1.15,2013-01-18 01:10:00,
2013-01-17 17:15:00,60.8,38.1,30.09,ENE,75,0.0,1.0,43,0.00,,,0.00,Wunderground v.1.15,2013-01-18 01:15:00,
2013-01-17 17:20:00,60.4,37.2,30.09,ENE,72,0.0,0.0,42,0.00,,,0.00,Wunderground v.1.15,2013-01-18 01:20:00,
2013-01-17 17:25:00,60.2,38.8,30.09,ENE,72,0.0,0.0,45,0.00,,,0.00,Wunderground v.1.15,2013-01-18 01:25:00,
2013-01-17 17:30:00,59.9,37.9,30.09,ENE,72,0.0,0.0,44,0.00,,,0.00,Wunderground v.1.15,2013-01-18 01:30:00,
2013-01-17 17:35:00,60.1,35.0,30.09,West,263,0.0,0.0,39,0.00,,,0.00,Wunderground v.1.15,2013-01-18 01:35:00,
2013-01-17 17:40:00,60.6,33.5,30.09,NW,324,0.0,1.0,36,0.00,,,0.00,Wunderground v.1.15,2013-01-18 01:40:00,
2013-01-17 17:50:00,61.1,32.5,30.09,NW,322,0.0,0.0,34,0.00,,,0.00,Wunderground v.1.15,2013-01-18 01:50:00,
2013-01-17 17:55:00,61.2,32.6,30.09,WNW,302,0.0,2.0,34,0.00,,,0.00,Wunderground v.1.15,2013-01-18 01:55:00,
2013-01-17 18:00:00,61.2,32.6,30.09,NE,52,0.0,0.0,34,0.00,,,0.00,Wunderground v.1.15,2013-01-18 02:00:00,
2013-01-17 18:10:00,61.1,31.0,30.10,WNW,302,1.0,1.0,32,0.00,,,0.00,Wunderground v.1.15,2013-01-18 02:10:00,
2013-01-17 18:15:00,61.2,30.3,30.10,NNE,12,1.0,1.0,31,0.00,,,0.00,Wunderground v.1.15,2013-01-18 02:15:00,
2013-01-17 18:25:00,61.2,30.3,30.10,NW,324,0.0,2.0,31,0.00,,,0.00,Wunderground v.1.15,2013-01-18 02:25:00,
2013-01-17 18:30:00,61.2,29.5,30.10,ENE,65,0.0,1.0,30,0.00,,,0.00,Wunderground v.1.15,2013-01-18 02:30:00,
2013-01-17 18:35:00,61.3,30.4,30.10,NNE,12,0.0,1.0,31,0.00,,,0.00,Wunderground v.1.15,2013-01-18 02:35:00,
2013-01-17 18:40:00,61.1,30.2,30.10,NE,39,0.0,0.0,31,0.00,,,0.00,Wunderground v.1.15,2013-01-18 02:40:00,
2013-01-17 18:45:00,60.9,30.0,30.10,WNW,300,0.0,0.0,31,0.00,,,0.00,Wunderground v.1.15,2013-01-18 02:45:00,
2013-01-17 18:50:00,60.8,29.9,30.10,NE,53,0.0,0.0,31,0.00,,,0.00,Wunderground v.1.15,2013-01-18 02:50:00,
2013-01-17 18:55:00,61.0,28.5,30.10,NNW,330,1.0,1.0,29,0.00,,,0.00,Wunderground v.1.15,2013-01-18 02:55:00,
2013-01-17 19:05:00,61.0,29.3,30.10,NNE,15,0.0,1.0,30,0.00,,,0.00,Wunderground v.1.15,2013-01-18 03:05:00,
2013-01-17 19:10:00,60.9,28.4,30.10,NNW,342,0.0,0.0,29,0.00,,,0.00,Wunderground v.1.15,2013-01-18 03:10:00,
2013-01-17 19:15:00,61.1,28.6,30.10,NNW,345,0.0,0.0,29,0.00,,,0.00,Wunderground v.1.15,2013-01-18 03:15:00,
2013-01-17 19:25:00,61.4,28.8,30.10,North,8,1.0,1.0,29,0.00,,,0.00,Wunderground v.1.15,2013-01-18 03:25:00,
2013-01-17 19:30:00,61.3,28.7,30.10,ENE,61,1.0,1.0,29,0.00,,,0.00,Wunderground v.1.15,2013-01-18 03:30:00,
2013-01-17 19:40:00,60.9,28.4,30.10,ESE,103,0.0,0.0,29,0.00,,,0.00,Wunderground v.1.15,2013-01-18 03:40:00,
2013-01-17 19:45:00,61.2,28.7,30.10,NE,38,0.0,0.0,29,0.00,,,0.00,Wunderground v.1.15,2013-01-18 03:45:00,
2013-01-17 19:50:00,61.1,29.4,30.10,WNW,283,0.0,0.0,30,0.00,,,0.00,Wunderground v.1.15,2013-01-18 03:50:00,
2013-01-17 20:00:00,60.8,28.3,30.10,NNE,23,0.0,0.0,29,0.00,,,0.00,Wunderground v.1.15,2013-01-18 04:00:00,
2013-01-17 20:10:00,60.9,28.4,30.10,NNW,335,1.0,1.0,29,0.00,,,0.00,Wunderground v.1.15,2013-01-18 04:10:00,
2013-01-17 20:15:00,60.8,27.5,30.10,NNW,339,1.0,1.0,28,0.00,,,0.00,Wunderground v.1.15,2013-01-18 04:15:00,
2013-01-17 20:20:00,60.8,27.5,30.10,NNE,32,0.0,0.0,28,0.00,,,0.00,Wunderground v.1.15,2013-01-18 04:20:00,
2013-01-17 20:25:00,60.7,27.4,30.10,SSW,208,1.0,1.0,28,0.00,,,0.00,Wunderground v.1.15,2013-01-18 04:25:00,
2013-01-17 20:30:00,60.8,26.6,30.10,NE,44,0.0,1.0,27,0.00,,,0.00,Wunderground v.1.15,2013-01-18 04:30:00,
2013-01-17 20:35:00,60.8,26.6,30.10,North,352,0.0,1.0,27,0.00,,,0.00,Wunderground v.1.15,2013-01-18 04:35:00,
2013-01-17 20:40:00,60.9,26.7,30.10,NNE,22,0.0,0.0,27,0.00,,,0.00,Wunderground v.1.15,2013-01-18 04:40:00,
2013-01-17 20:50:00,60.9,26.7,30.10,East,89,0.0,0.0,27,0.00,,,0.00,Wunderground v.1.15,2013-01-18 04:50:00,
2013-01-17 20:55:00,60.8,27.5,30.10,NNE,19,0.0,0.0,28,0.00,,,0.00,Wunderground v.1.15,2013-01-18 04:55:00,
2013-01-17 21:05:00,60.7,26.5,30.11,NE,39,0.0,0.0,27,0.00,,,0.00,Wunderground v.1.15,2013-01-18 05:05:00,
2013-01-17 21:10:00,60.9,25.7,30.10,NNE,23,1.0,1.0,26,0.00,,,0.00,Wunderground v.1.15,2013-01-18 05:10:00,
2013-01-17 21:15:00,61.0,26.7,30.10,WNW,284,1.0,1.0,27,0.00,,,0.00,Wunderground v.1.15,2013-01-18 05:15:00,
2013-01-17 21:20:00,61.0,26.7,30.10,ESE,105,0.0,1.0,27,0.00,,,0.00,Wunderground v.1.15,2013-01-18 05:20:00,
2013-01-17 21:30:00,61.3,27.0,30.10,ENE,68,0.0,0.0,27,0.00,,,0.00,Wunderground v.1.15,2013-01-18 05:30:00,
2013-01-17 21:40:00,61.1,25.9,30.10,North,349,1.0,1.0,26,0.00,,,0.00,Wunderground v.1.15,2013-01-18 05:40:00,
2013-01-17 21:50:00,61.1,25.9,30.10,NW,318,0.0,0.0,26,0.00,,,0.00,Wunderground v.1.15,2013-01-18 05:50:00,
2013-01-17 21:55:00,61.3,26.1,30.10,NW,319,0.0,1.0,26,0.00,,,0.00,Wunderground v.1.15,2013-01-18 05:55:00,
2013-01-17 22:05:00,61.1,25.9,30.10,NE,37,1.0,1.0,26,0.00,,,0.00,Wunderground v.1.15,2013-01-18 06:05:00,
2013-01-17 22:10:00,61.4,26.2,30.10,NW,307,0.0,1.0,26,0.00,,,0.00,Wunderground v.1.15,2013-01-18 06:10:00,
2013-01-17 22:15:00,61.5,26.3,30.10,NNE,24,1.0,1.0,26,0.00,,,0.00,Wunderground v.1.15,2013-01-18 06:15:00,
2013-01-17 22:25:00,61.3,27.0,30.10,NNW,337,1.0,1.0,27,0.00,,,0.00,Wunderground v.1.15,2013-01-18 06:25:00,
2013-01-17 22:30:00,61.0,27.6,30.10,NNW,337,0.0,1.0,28,0.00,,,0.00,Wunderground v.1.15,2013-01-18 06:30:00,
2013-01-17 22:35:00,60.8,28.3,30.10,SE,131,0.0,1.0,29,0.00,,,0.00,Wunderground v.1.15,2013-01-18 06:35:00,
2013-01-17 22:40:00,60.4,27.1,30.10,NNE,15,0.0,1.0,28,0.00,,,0.00,Wunderground v.1.15,2013-01-18 06:40:00,
2013-01-17 22:50:00,59.9,28.4,30.10,NW,320,1.0,1.0,30,0.00,,,0.00,Wunderground v.1.15,2013-01-18 06:50:00,
2013-01-17 22:55:00,59.5,27.2,30.11,NW,321,0.0,1.0,29,0.00,,,0.00,Wunderground v.1.15,2013-01-18 06:55:00,
2013-01-17 23:00:00,59.4,26.2,30.11,WNW,298,0.0,1.0,28,0.00,,,0.00,Wunderground v.1.15,2013-01-18 07:00:00,
2013-01-17 23:10:00,59.2,26.9,30.11,NNE,19,0.0,0.0,29,0.00,,,0.00,Wunderground v.1.15,2013-01-18 07:10:00,
2013-01-17 23:15:00,59.1,26.8,30.11,NNE,13,0.0,0.0,29,0.00,,,0.00,Wunderground v.1.15,2013-01-18 07:15:00,
2013-01-17 23:20:00,59.2,26.1,30.11,ESE,116,1.0,1.0,28,0.00,,,0.00,Wunderground v.1.15,2013-01-18 07:20:00,
2013-01-17 23:30:00,59.0,26.8,30.11,East,79,0.0,0.0,29,0.00,,,0.00,Wunderground v.1.15,2013-01-18 07:30:00,
2013-01-17 23:35:00,58.9,26.7,30.11,NNE,30,0.0,0.0,29,0.00,,,0.00,Wunderground v.1.15,2013-01-18 07:35:00,
2013-01-17 23:40:00,58.7,27.3,30.11,NE,54,0.0,0.0,30,0.00,,,0.00,Wunderground v.1.15,2013-01-18 07:40:00,
2013-01-17 23:45:00,58.3,27.0,30.11,ESE,123,0.0,0.0,30,0.00,,,0.00,Wunderground v.1.15,2013-01-18 07:45:00,
2013-01-17 23:50:00,58.1,26.8,30.11,NNW,330,0.0,3.0,30,0.00,,,0.00,Wunderground v.1.15,2013-01-18 07:50:00,